Terminal Aerodrome Forecast
Issued by NWS

Home | Current Version | Previous Version | Text Only | Print | Product List | Glossary On
Versions: 1 2 3 4 5 6 7 8 9 10 11 12 13 14 15 16
000
FTUS44 KLIX 261741
TAFHUM
TAF
KHUM 261741Z 2618/2718 24007KT P6SM VCSH SCT015 SCT050 BKN100
      TEMPO 2618/2620 3SM TSRA BR BKN020CB
     FM270200 20005KT P6SM VCSH BKN040=

USA.gov is the U.S. government's official web portal to all federal, state and local government web resources and services.